Time;durP1;ratioP1;P1;durP2;ratioP2;P2;SDS_P1;SDS_P2;PMS_P1;PMS_P2;Temp;Humidity;BMP_temperature;BMP_pressure;BME280_temperature;BME280_humidity;BME280_pressure;Samples;Min_cycle;Max_cycle;Signal;HPM_P1;HPM_P2
2022/01/15 00:01:43;;;;;;;15.60;8.77;;;;;12.00;103124.00;;;;5016888;28;20201;-80
2022/01/15 00:04:10;;;;;;;15.10;9.25;;;;;12.00;103122.00;;;;5013914;28;20230;-80
2022/01/15 00:06:38;;;;;;;14.15;8.18;;;;;12.00;103110.00;;;;5009385;28;20208;-80
2022/01/15 00:09:06;;;;;;;11.45;6.85;;;;;12.00;103115.00;;;;5017507;28;20204;-80
2022/01/15 00:11:34;;;;;;;13.70;6.70;;;;;12.00;103108.00;;;;5025000;28;20204;-81
2022/01/15 00:14:12;;;;;;;11.98;6.80;;;;;12.00;103113.00;;;;5017799;28;20189;-81
2022/01/15 00:16:49;;;;;;;15.20;8.05;;;;;11.90;103111.00;;;;5010257;28;20232;-81
2022/01/15 00:19:18;;;;;;;11.38;6.75;;;;;11.90;103110.00;;;;5021881;28;20216;-81
2022/01/15 00:21:46;;;;;;;12.45;7.40;;;;;11.90;103101.00;;;;5023625;28;20212;-81
2022/01/15 00:24:15;;;;;;;12.20;7.13;;;;;11.90;103110.00;;;;5024604;28;20204;-81
2022/01/15 00:26:42;;;;;;;13.07;7.15;;;;;11.90;103103.00;;;;5012489;28;20228;-81
2022/01/15 00:29:09;;;;;;;12.45;7.10;;;;;11.90;103104.00;;;;5018507;28;20200;-80
2022/01/15 00:31:37;;;;;;;12.80;7.30;;;;;11.80;103094.00;;;;5024234;28;20193;-80
2022/01/15 00:34:05;;;;;;;13.82;7.97;;;;;11.80;103094.00;;;;5023986;28;20254;-80
2022/01/15 00:36:33;;;;;;;11.93;6.80;;;;;11.80;103094.00;;;;5009284;28;20252;-80
2022/01/15 00:39:00;;;;;;;14.18;7.32;;;;;11.80;103094.00;;;;5011400;28;20200;-81
2022/01/15 00:41:27;;;;;;;14.52;7.78;;;;;11.80;103088.00;;;;5022382;28;20212;-81
2022/01/15 00:43:54;;;;;;;14.55;8.15;;;;;11.80;103085.00;;;;5020154;28;20193;-81
2022/01/15 00:46:22;;;;;;;14.20;7.00;;;;;11.80;103080.00;;;;5023638;28;20193;-80
2022/01/15 00:48:49;;;;;;;15.50;8.32;;;;;11.80;103075.00;;;;5019432;28;20185;-81
2022/01/15 00:51:18;;;;;;;14.48;8.05;;;;;11.80;103082.00;;;;5021880;28;20203;-81
2022/01/15 00:53:45;;;;;;;14.68;7.30;;;;;11.80;103084.00;;;;5014433;28;20208;-81
2022/01/15 00:56:12;;;;;;;13.00;7.38;;;;;11.80;103081.00;;;;5012016;28;20228;-81
2022/01/15 00:58:39;;;;;;;13.15;7.45;;;;;11.80;103076.00;;;;5025918;28;20196;-81
2022/01/15 01:01:07;;;;;;;13.35;7.63;;;;;11.80;103068.00;;;;5027964;28;20195;-81
2022/01/15 01:03:34;;;;;;;13.35;7.03;;;;;11.70;103067.00;;;;5013326;28;20193;-80
2022/01/15 01:06:01;;;;;;;13.25;7.07;;;;;11.70;103071.00;;;;5024784;28;20200;-81
2022/01/15 01:08:30;;;;;;;12.98;6.68;;;;;11.70;103058.00;;;;5019160;28;20197;-81
2022/01/15 01:10:59;;;;;;;13.05;6.80;;;;;11.70;103060.00;;;;5027071;28;20188;-81
2022/01/15 01:24:27;;;;;;;16.50;8.10;;;;;11.70;103051.00;;;;5014465;28;20220;-81
2022/01/15 01:26:59;;;;;;;13.85;7.38;;;;;11.70;103053.00;;;;5010073;28;21213;-80
2022/01/15 01:29:35;;;;;;;14.65;7.15;;;;;11.70;103049.00;;;;5015832;28;20196;-81
2022/01/15 01:32:08;;;;;;;11.50;6.55;;;;;11.70;103047.00;;;;5008729;28;20646;-81
2022/01/15 01:34:38;;;;;;;12.38;6.97;;;;;11.70;103049.00;;;;5019311;28;20664;-81
2022/01/15 01:37:11;;;;;;;14.27;7.47;;;;;11.70;103048.00;;;;5027719;28;20247;-81
2022/01/15 01:39:45;;;;;;;14.77;8.07;;;;;11.60;103044.00;;;;5015038;28;20292;-81
2022/01/15 01:42:32;;;;;;;13.00;7.63;;;;;11.60;103033.00;;;;5018563;28;20208;-81
2022/01/15 01:45:07;;;;;;;12.60;6.95;;;;;11.60;103034.00;;;;5009464;28;20205;-81
2022/01/15 01:47:41;;;;;;;13.95;6.57;;;;;11.60;103036.00;;;;5015948;28;20289;-81
2022/01/15 01:50:12;;;;;;;13.45;7.00;;;;;11.60;103042.00;;;;5011172;28;20738;-81
2022/01/15 01:52:40;;;;;;;12.18;6.18;;;;;11.60;103034.00;;;;5024099;28;20200;-81
2022/01/15 01:55:10;;;;;;;14.27;7.82;;;;;11.60;103040.00;;;;5008593;28;20205;-81
2022/01/15 01:57:37;;;;;;;13.77;7.78;;;;;11.60;103042.00;;;;5016136;28;20686;-81
2022/01/15 02:00:07;;;;;;;13.15;6.85;;;;;11.60;103037.00;;;;5021716;28;21121;-81
2022/01/15 02:02:35;;;;;;;14.27;7.10;;;;;11.60;103043.00;;;;5023262;28;20564;-80
2022/01/15 02:05:04;;;;;;;12.35;7.22;;;;;11.60;103041.00;;;;5017777;28;20201;-81
2022/01/15 02:07:31;;;;;;;10.35;5.45;;;;;11.60;103029.00;;;;5011806;28;20193;-81
2022/01/15 02:09:59;;;;;;;11.85;5.75;;;;;11.60;103019.00;;;;5024609;28;20204;-81
2022/01/15 02:12:28;;;;;;;11.77;5.43;;;;;11.60;103019.00;;;;5030117;28;20342;-81
2022/01/15 02:14:55;;;;;;;10.05;5.15;;;;;11.50;103023.00;;;;5017343;28;20204;-81
2022/01/15 02:17:22;;;;;;;11.60;5.47;;;;;11.50;103019.00;;;;5031597;28;20223;-81
2022/01/15 02:20:21;;;;;;;10.75;5.78;;;;;11.50;103022.00;;;;5016557;28;20217;-81
2022/01/15 02:25:42;;;;;;;9.48;4.82;;;;;11.40;103014.00;;;;5011776;28;20303;-79
2022/01/15 02:28:10;;;;;;;11.90;5.13;;;;;11.40;103011.00;;;;5027717;28;20227;-80
2022/01/15 02:30:38;;;;;;;11.02;4.47;;;;;11.40;103010.00;;;;5011031;28;20248;-79
2022/01/15 02:33:06;;;;;;;9.60;4.80;;;;;11.40;103005.00;;;;5014114;28;20572;-80
2022/01/15 02:35:35;;;;;;;11.30;5.05;;;;;11.40;103005.00;;;;5014293;28;20197;-80
2022/01/15 02:38:03;;;;;;;12.20;5.45;;;;;11.40;103002.00;;;;5028549;28;20683;-80
2022/01/15 02:40:32;;;;;;;12.45;5.43;;;;;11.40;103005.00;;;;5011837;28;20201;-80
2022/01/15 02:43:04;;;;;;;11.70;5.60;;;;;11.40;102998.00;;;;5028510;28;20216;-81
2022/01/15 02:45:34;;;;;;;12.32;5.75;;;;;11.40;102993.00;;;;5022359;28;20620;-80
2022/01/15 02:48:03;;;;;;;12.23;6.00;;;;;11.40;102979.00;;;;5029942;28;20666;-80
2022/01/15 02:50:30;;;;;;;10.00;4.88;;;;;11.40;102971.00;;;;5021703;28;20200;-80
2022/01/15 02:53:02;;;;;;;10.18;5.03;;;;;11.40;102978.00;;;;5030170;28;20204;-80
2022/01/15 02:55:29;;;;;;;13.65;5.82;;;;;11.40;102968.00;;;;5020428;28;20239;-80
2022/01/15 02:57:57;;;;;;;11.95;5.47;;;;;11.40;102968.00;;;;5029326;28;20235;-80
2022/01/15 03:00:25;;;;;;;12.57;5.85;;;;;11.40;102968.00;;;;5022520;28;20196;-80
2022/01/15 03:02:52;;;;;;;11.43;5.43;;;;;11.40;102962.00;;;;5011234;28;20563;-80
2022/01/15 03:05:22;;;;;;;10.02;4.85;;;;;11.40;102977.00;;;;5018273;28;20769;-80
2022/01/15 03:07:50;;;;;;;13.98;5.82;;;;;11.40;102968.00;;;;5011662;28;20201;-80
2022/01/15 03:10:18;;;;;;;14.68;5.68;;;;;11.40;102973.00;;;;5025541;28;20215;-80
2022/01/15 03:12:46;;;;;;;11.98;5.45;;;;;11.30;102959.00;;;;5012999;28;20718;-80
2022/01/15 03:15:19;;;;;;;11.20;5.35;;;;;11.30;102939.00;;;;5029106;28;20200;-80
2022/01/15 03:17:47;;;;;;;11.35;5.10;;;;;11.30;102946.00;;;;5023217;28;20224;-80
2022/01/15 03:20:17;;;;;;;12.32;5.15;;;;;11.30;102952.00;;;;5021624;28;20742;-80
2022/01/15 03:22:44;;;;;;;13.65;6.00;;;;;11.30;102943.00;;;;5026767;28;20204;-80
2022/01/15 03:25:13;;;;;;;13.10;5.53;;;;;11.30;102943.00;;;;5030009;28;20197;-80
2022/01/15 03:27:42;;;;;;;10.65;5.03;;;;;11.20;102927.00;;;;5024119;28;20204;-80
2022/01/15 03:30:11;;;;;;;11.82;5.13;;;;;11.20;102933.00;;;;5026852;28;20209;-80
2022/01/15 03:32:42;;;;;;;11.13;4.70;;;;;11.20;102939.00;;;;5025571;28;20199;-79
2022/01/15 03:35:12;;;;;;;11.90;5.03;;;;;11.20;102937.00;;;;5013732;28;20670;-80
2022/01/15 03:37:39;;;;;;;8.48;4.30;;;;;11.20;102936.00;;;;5023471;28;20669;-80
2022/01/15 03:40:10;;;;;;;10.73;4.93;;;;;11.10;102929.00;;;;5014459;28;20197;-80
2022/01/15 03:42:37;;;;;;;13.32;5.63;;;;;11.10;102934.00;;;;5023630;28;20212;-80
2022/01/15 03:45:07;;;;;;;12.55;5.35;;;;;11.10;102930.00;;;;5022875;28;20200;-80
2022/01/15 03:47:34;;;;;;;12.32;4.82;;;;;11.10;102928.00;;;;5029030;28;20196;-81
2022/01/15 03:50:02;;;;;;;12.48;5.97;;;;;11.10;102920.00;;;;5018087;28;20224;-81
2022/01/15 03:52:29;;;;;;;14.98;6.32;;;;;11.10;102918.00;;;;5029724;28;20659;-81
2022/01/15 03:54:57;;;;;;;10.48;5.47;;;;;11.10;102917.00;;;;5027921;28;20200;-81
2022/01/15 03:57:25;;;;;;;12.35;6.18;;;;;11.00;102906.00;;;;5027268;28;20224;-81
2022/01/15 03:59:52;;;;;;;12.13;5.63;;;;;11.00;102900.00;;;;5029609;28;20204;-81
2022/01/15 04:02:20;;;;;;;11.00;4.63;;;;;11.00;102899.00;;;;5019443;28;20200;-81
2022/01/15 04:04:48;;;;;;;12.45;5.65;;;;;11.00;102901.00;;;;5023657;28;20197;-81
2022/01/15 04:07:15;;;;;;;8.60;4.63;;;;;11.00;102902.00;;;;5030051;28;20200;-81
2022/01/15 04:09:42;;;;;;;9.73;4.47;;;;;11.00;102909.00;;;;5025918;28;20200;-81
2022/01/15 04:12:10;;;;;;;10.13;4.75;;;;;10.90;102896.00;;;;5018333;28;20217;-82
2022/01/15 04:14:37;;;;;;;10.82;4.47;;;;;10.90;102896.00;;;;5022629;28;20207;-82
2022/01/15 04:17:06;;;;;;;12.60;5.50;;;;;10.80;102895.00;;;;5028732;28;20221;-82
2022/01/15 04:19:36;;;;;;;10.05;4.82;;;;;10.80;102888.00;;;;5025363;28;20726;-81
2022/01/15 04:22:03;;;;;;;8.57;4.53;;;;;10.80;102891.00;;;;5013223;28;20296;-82
2022/01/15 04:24:30;;;;;;;8.95;4.25;;;;;10.80;102880.00;;;;5016956;28;20205;-81
2022/01/15 04:26:58;;;;;;;11.43;4.57;;;;;10.80;102879.00;;;;5028130;28;20278;-82
2022/01/15 04:29:25;;;;;;;10.25;4.78;;;;;10.80;102882.00;;;;5029587;28;20201;-82
2022/01/15 04:31:52;;;;;;;9.20;4.07;;;;;10.80;102895.00;;;;5028124;28;20204;-79
2022/01/15 04:34:25;;;;;;;10.85;5.03;;;;;10.70;102884.00;;;;5023003;28;20192;-81
2022/01/15 04:36:57;;;;;;;10.07;4.10;;;;;10.70;102880.00;;;;5023348;28;20224;-81
2022/01/15 04:39:24;;;;;;;11.27;5.45;;;;;10.70;102888.00;;;;5014659;28;20193;-81
2022/01/15 04:41:51;;;;;;;12.07;5.35;;;;;10.70;102888.00;;;;5015605;28;20192;-81
2022/01/15 04:44:19;;;;;;;12.90;5.50;;;;;10.60;102888.00;;;;5018923;28;20204;-80
2022/01/15 04:46:46;;;;;;;12.52;5.65;;;;;10.70;102877.00;;;;5029037;28;20215;-81
2022/01/15 04:49:13;;;;;;;10.18;5.25;;;;;10.70;102883.00;;;;5028098;28;20654;-81
2022/01/15 04:51:41;;;;;;;12.45;5.32;;;;;10.60;102887.00;;;;5015380;28;20201;-81
2022/01/15 04:54:09;;;;;;;10.20;5.18;;;;;10.60;102874.00;;;;5014683;28;20208;-81
2022/01/15 04:56:37;;;;;;;10.93;5.38;;;;;10.60;102875.00;;;;5020950;28;20201;-81
2022/01/15 04:59:04;;;;;;;9.48;4.88;;;;;10.60;102867.00;;;;5020729;28;20673;-81
2022/01/15 05:01:31;;;;;;;12.43;5.80;;;;;10.60;102864.00;;;;5024596;28;20200;-81
2022/01/15 05:03:58;;;;;;;10.38;5.13;;;;;10.60;102857.00;;;;5022421;28;20197;-81
2022/01/15 05:06:26;;;;;;;10.30;5.68;;;;;10.60;102870.00;;;;5025687;28;20204;-81
2022/01/15 05:09:02;;;;;;;13.07;5.70;;;;;10.60;102872.00;;;;5012646;28;20208;-81
2022/01/15 05:11:43;;;;;;;13.00;6.68;;;;;10.50;102858.00;;;;5020162;28;20220;-81
2022/01/15 05:14:10;;;;;;;13.55;6.78;;;;;10.60;102854.00;;;;5017075;28;20262;-81
2022/01/15 05:16:37;;;;;;;14.43;6.65;;;;;10.60;102856.00;;;;5027908;28;20662;-81
2022/01/15 05:19:05;;;;;;;12.38;6.53;;;;;10.50;102852.00;;;;5025012;28;20227;-81
2022/01/15 05:21:32;;;;;;;13.55;5.97;;;;;10.60;102852.00;;;;5016956;28;20676;-81
2022/01/15 05:23:59;;;;;;;11.13;5.53;;;;;10.60;102841.00;;;;5028099;28;20199;-82
2022/01/15 05:26:27;;;;;;;9.82;5.15;;;;;10.60;102840.00;;;;5027083;28;20657;-81
2022/01/15 05:28:56;;;;;;;11.55;5.82;;;;;10.50;102839.00;;;;5014009;28;21054;-81
2022/01/15 05:31:24;;;;;;;13.10;5.35;;;;;10.50;102843.00;;;;5027315;28;20231;-81
2022/01/15 05:33:51;;;;;;;13.13;6.15;;;;;10.50;102831.00;;;;5027970;28;20235;-81
2022/01/15 05:36:19;;;;;;;13.60;6.65;;;;;10.50;102829.00;;;;5015595;28;20560;-81
2022/01/15 05:38:46;;;;;;;13.35;7.03;;;;;10.50;102835.00;;;;5010312;28;20221;-82
2022/01/15 05:41:13;;;;;;;13.32;7.53;;;;;10.50;102831.00;;;;5019976;28;20559;-81
2022/01/15 05:43:41;;;;;;;15.40;7.03;;;;;10.50;102827.00;;;;5030662;28;20188;-81
2022/01/15 05:46:09;;;;;;;11.68;5.95;;;;;10.50;102828.00;;;;5031106;28;20204;-81
2022/01/15 05:48:36;;;;;;;10.30;5.55;;;;;10.50;102830.00;;;;5035020;28;20203;-81
2022/01/15 05:51:04;;;;;;;10.63;5.72;;;;;10.50;102819.00;;;;5026928;28;20689;-81
2022/01/15 05:53:31;;;;;;;11.57;5.80;;;;;10.50;102822.00;;;;5034579;28;20572;-81
2022/01/15 05:55:58;;;;;;;17.60;6.25;;;;;10.50;102827.00;;;;5017006;28;20208;-81
2022/01/15 05:58:26;;;;;;;11.73;5.93;;;;;10.50;102818.00;;;;5034959;28;20216;-81
2022/01/15 06:00:53;;;;;;;12.15;5.70;;;;;10.50;102824.00;;;;5032067;28;20203;-81
2022/01/15 06:03:21;;;;;;;10.85;6.15;;;;;10.50;102808.00;;;;5028337;28;20200;-81
2022/01/15 06:05:49;;;;;;;13.60;6.55;;;;;10.50;102802.00;;;;5022713;28;20211;-81
2022/01/15 06:08:16;;;;;;;13.95;6.07;;;;;10.50;102805.00;;;;5027689;28;20204;-81
2022/01/15 06:10:43;;;;;;;14.70;6.57;;;;;10.50;102803.00;;;;5020317;28;20197;-80
2022/01/15 06:13:10;;;;;;;9.43;5.78;;;;;10.40;102789.00;;;;5029365;28;20244;-81
2022/01/15 06:15:38;;;;;;;10.30;6.13;;;;;10.40;102794.00;;;;5033128;28;20199;-80
2022/01/15 06:18:05;;;;;;;10.63;5.85;;;;;10.40;102790.00;;;;5033882;28;20232;-80
2022/01/15 06:20:34;;;;;;;10.63;5.95;;;;;10.40;102791.00;;;;5024108;28;20259;-79
2022/01/15 06:23:01;;;;;;;9.85;5.30;;;;;10.40;102782.00;;;;5025756;28;20200;-80
2022/01/15 06:25:28;;;;;;;10.57;5.40;;;;;10.40;102776.00;;;;5022004;28;20485;-80
2022/01/15 06:27:57;;;;;;;9.50;5.72;;;;;10.40;102791.00;;;;5026511;28;20296;-81
2022/01/15 06:30:24;;;;;;;12.30;6.43;;;;;10.40;102784.00;;;;5032927;28;20200;-80
2022/01/15 06:32:51;;;;;;;11.40;5.55;;;;;10.40;102784.00;;;;5032498;28;20211;-80
2022/01/15 06:35:22;;;;;;;10.80;5.65;;;;;10.40;102772.00;;;;5032706;28;20606;-80
2022/01/15 06:37:52;;;;;;;10.27;5.50;;;;;10.40;102768.00;;;;5033752;28;20314;-81
2022/01/15 06:40:19;;;;;;;10.38;5.30;;;;;10.40;102769.00;;;;5034500;28;20250;-79
2022/01/15 06:42:46;;;;;;;12.30;6.40;;;;;10.40;102771.00;;;;5031386;28;20215;-80
2022/01/15 06:45:14;;;;;;;11.55;6.22;;;;;10.40;102763.00;;;;5031957;28;20211;-80
2022/01/15 06:47:41;;;;;;;9.05;5.38;;;;;10.40;102768.00;;;;5034153;28;20195;-80
2022/01/15 06:50:10;;;;;;;10.77;5.95;;;;;10.40;102764.00;;;;5033132;28;20192;-80
2022/01/15 06:52:38;;;;;;;10.75;5.93;;;;;10.50;102768.00;;;;5029390;28;20215;-80
2022/01/15 06:55:09;;;;;;;11.13;5.93;;;;;10.50;102765.00;;;;5030275;28;20196;-79
2022/01/15 06:57:38;;;;;;;11.13;5.35;;;;;10.50;102750.00;;;;5028389;28;20295;-79
2022/01/15 07:00:06;;;;;;;10.40;5.70;;;;;10.50;102753.00;;;;5027048;28;20675;-80
2022/01/15 07:02:34;;;;;;;13.10;7.35;;;;;10.50;102759.00;;;;5024800;28;20570;-81
2022/01/15 07:05:04;;;;;;;12.40;6.28;;;;;10.50;102748.00;;;;5022817;28;20667;-80
2022/01/15 07:07:34;;;;;;;15.63;6.85;;;;;10.60;102744.00;;;;5028858;28;20204;-80
2022/01/15 07:10:01;;;;;;;12.10;6.82;;;;;10.50;102740.00;;;;5028041;28;20204;-79
2022/01/15 07:12:30;;;;;;;12.25;6.65;;;;;10.50;102751.00;;;;5028318;28;20213;-80
2022/01/15 07:14:57;;;;;;;14.20;6.35;;;;;10.50;102742.00;;;;5027886;28;20192;-80
2022/01/15 07:17:25;;;;;;;10.70;6.22;;;;;10.50;102742.00;;;;5027364;28;20201;-80
2022/01/15 07:19:52;;;;;;;10.18;5.85;;;;;10.50;102742.00;;;;5028490;28;20655;-80
2022/01/15 07:22:20;;;;;;;11.52;6.22;;;;;10.50;102739.00;;;;5023295;28;20193;-80
2022/01/15 07:24:47;;;;;;;11.30;6.30;;;;;10.50;102738.00;;;;5026671;28;20200;-81
2022/01/15 07:27:15;;;;;;;10.68;5.78;;;;;10.50;102751.00;;;;5025716;28;20223;-79
2022/01/15 07:29:45;;;;;;;12.18;6.43;;;;;10.50;102733.00;;;;5026877;28;20213;-80
2022/01/15 07:32:13;;;;;;;12.45;6.00;;;;;10.50;102739.00;;;;5021024;28;20288;-79
2022/01/15 07:34:40;;;;;;;11.95;6.60;;;;;10.50;102739.00;;;;5025863;28;20201;-80
2022/01/15 07:37:07;;;;;;;11.93;6.53;;;;;10.50;102745.00;;;;5026269;28;20421;-80
2022/01/15 07:39:35;;;;;;;12.75;7.78;;;;;10.50;102739.00;;;;5025660;28;20228;-79
2022/01/15 07:42:05;;;;;;;10.90;5.68;;;;;10.50;102738.00;;;;5023355;28;20274;-80
2022/01/15 07:44:36;;;;;;;11.65;6.45;;;;;10.50;102746.00;;;;5027265;28;20200;-79
2022/01/15 07:47:05;;;;;;;13.35;7.50;;;;;10.50;102748.00;;;;5022534;28;20726;-79
2022/01/15 07:49:32;;;;;;;12.32;7.03;;;;;10.50;102739.00;;;;5023778;28;20204;-79
2022/01/15 07:52:00;;;;;;;13.48;7.57;;;;;10.60;102735.00;;;;5013500;28;20595;-81
2022/01/15 07:54:27;;;;;;;12.65;7.20;;;;;10.60;102744.00;;;;5020398;28;20758;-81
2022/01/15 07:56:55;;;;;;;11.05;5.97;;;;;10.60;102740.00;;;;5022315;28;20200;-79
2022/01/15 07:59:23;;;;;;;11.93;6.38;;;;;10.60;102739.00;;;;5012272;28;20332;-79
2022/01/15 08:01:51;;;;;;;11.55;5.60;;;;;10.60;102750.00;;;;5013047;28;20204;-79
2022/01/15 08:04:19;;;;;;;11.15;5.97;;;;;10.60;102750.00;;;;5027410;28;20200;-78
2022/01/15 08:06:47;;;;;;;17.45;6.95;;;;;10.60;102743.00;;;;5029940;28;20220;-78
2022/01/15 08:09:14;;;;;;;11.45;6.80;;;;;10.60;102744.00;;;;5029386;28;20204;-80
2022/01/15 08:11:41;;;;;;;10.50;5.72;;;;;10.50;102733.00;;;;5018604;28;20212;-80
2022/01/15 08:14:09;;;;;;;11.43;6.50;;;;;10.60;102735.00;;;;5009713;28;20201;-79
2022/01/15 08:16:37;;;;;;;13.93;6.45;;;;;10.60;102740.00;;;;5011890;28;20288;-80
2022/01/15 08:19:04;;;;;;;11.80;6.35;;;;;10.60;102741.00;;;;5011647;28;20233;-80
2022/01/15 08:21:33;;;;;;;9.15;5.05;;;;;10.60;102742.00;;;;5016430;28;20193;-79
2022/01/15 08:24:00;;;;;;;10.38;5.95;;;;;10.60;102743.00;;;;5019282;28;20201;-79
2022/01/15 08:26:27;;;;;;;11.13;6.50;;;;;10.60;102740.00;;;;5025460;28;20212;-80
2022/01/15 08:28:56;;;;;;;11.55;7.25;;;;;10.60;102740.00;;;;5015369;28;20219;-80
2022/01/15 08:31:23;;;;;;;12.30;6.22;;;;;10.60;102741.00;;;;5021117;28;20193;-81
2022/01/15 08:33:50;;;;;;;11.75;5.88;;;;;10.60;102741.00;;;;5015372;28;20197;-80
2022/01/15 08:36:18;;;;;;;11.63;5.85;;;;;10.60;102737.00;;;;5015295;28;20197;-81
2022/01/15 08:38:47;;;;;;;12.45;6.22;;;;;10.70;102743.00;;;;5020276;28;20244;-81
2022/01/15 08:41:14;;;;;;;10.40;5.47;;;;;10.70;102741.00;;;;5020082;28;20201;-79
2022/01/15 08:43:42;;;;;;;9.60;5.35;;;;;10.70;102735.00;;;;5015374;28;20193;-80
2022/01/15 08:46:11;;;;;;;11.95;5.93;;;;;10.70;102739.00;;;;5015592;28;20586;-80
2022/01/15 08:48:39;;;;;;;11.50;5.82;;;;;10.70;102743.00;;;;5024649;28;20193;-80
2022/01/15 08:51:06;;;;;;;12.18;4.97;;;;;10.70;102747.00;;;;5026600;28;20196;-79
2022/01/15 08:53:34;;;;;;;12.38;5.82;;;;;10.70;102748.00;;;;5023570;28;20207;-80
2022/01/15 08:56:03;;;;;;;14.85;6.78;;;;;10.60;102739.00;;;;5013498;28;20204;-82
2022/01/15 08:58:30;;;;;;;12.85;6.55;;;;;10.70;102736.00;;;;5014039;28;20590;-80
2022/01/15 09:00:58;;;;;;;12.38;6.90;;;;;10.70;102734.00;;;;5011694;28;20209;-80
2022/01/15 09:03:26;;;;;;;11.77;6.35;;;;;10.70;102737.00;;;;5020080;28;20195;-81
2022/01/15 09:05:54;;;;;;;15.07;6.07;;;;;10.70;102729.00;;;;5020418;28;20204;-80
2022/01/15 09:08:24;;;;;;;11.63;6.10;;;;;10.70;102736.00;;;;5018165;28;20204;-80
2022/01/15 09:10:52;;;;;;;12.23;6.35;;;;;10.70;102728.00;;;;5013605;28;20247;-79
2022/01/15 09:13:21;;;;;;;14.95;7.28;;;;;10.80;102728.00;;;;5013180;28;20216;-81
2022/01/15 09:15:50;;;;;;;14.55;7.53;;;;;10.80;102727.00;;;;5018527;28;20193;-79
2022/01/15 09:18:17;;;;;;;12.95;6.53;;;;;10.80;102730.00;;;;5011690;28;20243;-78
2022/01/15 09:20:45;;;;;;;14.82;6.45;;;;;10.80;102726.00;;;;5020878;28;20223;-79
2022/01/15 09:23:12;;;;;;;12.93;6.22;;;;;10.80;102720.00;;;;5019571;28;20215;-80
2022/01/15 09:25:40;;;;;;;13.18;6.05;;;;;10.80;102719.00;;;;5022177;28;20197;-79
2022/01/15 09:30:54;;;;;;;12.93;6.80;;;;;10.80;102713.00;;;;5008726;28;20707;-76
2022/01/15 09:33:21;;;;;;;13.68;6.55;;;;;10.80;102713.00;;;;5015049;28;20204;-77
2022/01/15 09:35:48;;;;;;;16.13;6.93;;;;;10.90;102711.00;;;;5020571;28;20201;-77
2022/01/15 09:38:16;;;;;;;15.73;7.25;;;;;10.90;102704.00;;;;5015009;28;20239;-78
2022/01/15 09:40:44;;;;;;;12.80;6.88;;;;;10.90;102697.00;;;;5015121;28;20192;-78
2022/01/15 09:43:13;;;;;;;12.93;6.65;;;;;10.90;102700.00;;;;5017355;28;20247;-77
2022/01/15 09:45:40;;;;;;;13.18;6.30;;;;;10.90;102698.00;;;;5020856;28;20205;-77
2022/01/15 09:48:09;;;;;;;12.45;6.28;;;;;10.90;102691.00;;;;5020713;28;20282;-78
2022/01/15 09:50:41;;;;;;;16.45;6.95;;;;;10.90;102696.00;;;;5023987;28;20196;-78
2022/01/15 09:53:08;;;;;;;12.50;6.32;;;;;10.90;102692.00;;;;5020065;28;20192;-78
2022/01/15 09:55:36;;;;;;;11.98;6.00;;;;;10.90;102692.00;;;;5021923;28;20200;-77
2022/01/15 09:58:03;;;;;;;13.02;6.53;;;;;10.90;102687.00;;;;5020303;28;20192;-78
2022/01/15 10:00:31;;;;;;;15.52;6.82;;;;;11.00;102691.00;;;;5026228;28;20215;-79
2022/01/15 10:02:59;;;;;;;14.57;7.03;;;;;11.00;102698.00;;;;5011037;28;20570;-77
2022/01/15 10:05:28;;;;;;;12.10;6.22;;;;;11.00;102696.00;;;;5010941;28;20201;-78
2022/01/15 10:08:00;;;;;;;16.98;7.45;;;;;11.10;102699.00;;;;5017434;28;20188;-78
2022/01/15 10:10:30;;;;;;;17.17;6.72;;;;;11.10;102698.00;;;;5026619;28;20211;-78
2022/01/15 10:13:11;;;;;;;16.27;8.02;;;;;11.10;102700.00;;;;5012258;28;20216;-78
2022/01/15 10:15:38;;;;;;;17.50;7.28;;;;;11.10;102705.00;;;;5017628;28;20196;-78
2022/01/15 10:18:19;;;;;;;14.13;7.40;;;;;11.00;102709.00;;;;5009900;28;20209;-79
2022/01/15 10:20:48;;;;;;;14.10;6.78;;;;;11.10;102710.00;;;;5014342;28;20232;-78
2022/01/15 10:23:18;;;;;;;12.25;6.05;;;;;11.10;102708.00;;;;5019813;28;20235;-78
2022/01/15 10:25:45;;;;;;;13.35;5.93;;;;;11.10;102702.00;;;;5014861;28;20204;-78
2022/01/15 10:28:13;;;;;;;16.67;6.78;;;;;11.20;102704.00;;;;5018871;28;20207;-78
2022/01/15 10:30:46;;;;;;;14.88;6.35;;;;;11.10;102694.00;;;;5020041;28;20288;-79
2022/01/15 10:33:13;;;;;;;15.57;6.10;;;;;11.20;102698.00;;;;5022391;28;20705;-77
2022/01/15 10:35:43;;;;;;;14.13;6.70;;;;;11.10;102682.00;;;;5026315;28;20189;-78
2022/01/15 10:38:14;;;;;;;16.27;7.07;;;;;11.10;102681.00;;;;5012300;28;20228;-77
2022/01/15 10:40:42;;;;;;;17.33;5.95;;;;;11.10;102681.00;;;;5016180;28;20204;-78
2022/01/15 10:43:11;;;;;;;16.42;7.63;;;;;11.10;102678.00;;;;5015862;28;20204;-78
2022/01/15 10:45:49;;;;;;;14.18;6.63;;;;;11.00;102677.00;;;;5023739;28;20275;-77
2022/01/15 10:48:22;;;;;;;13.15;5.88;;;;;11.10;102668.00;;;;5024748;28;20214;-80
2022/01/15 10:50:58;;;;;;;15.80;7.43;;;;;11.00;102664.00;;;;5019086;28;20208;-78
2022/01/15 10:53:36;;;;;;;13.95;7.13;;;;;11.00;102668.00;;;;5010087;28;20196;-79
2022/01/15 10:56:04;;;;;;;17.10;7.57;;;;;11.10;102662.00;;;;5016969;28;20200;-77
2022/01/15 10:58:31;;;;;;;16.05;7.28;;;;;11.10;102659.00;;;;5026780;28;20226;-79
2022/01/15 11:00:59;;;;;;;21.27;9.00;;;;;11.20;102666.00;;;;5023370;28;20570;-77
2022/01/15 11:03:37;;;;;;;18.85;8.82;;;;;11.10;102660.00;;;;5011932;28;20201;-76
2022/01/15 11:06:05;;;;;;;23.75;9.10;;;;;11.20;102656.00;;;;5011465;28;20582;-77
2022/01/15 11:08:37;;;;;;;14.77;7.65;;;;;11.20;102659.00;;;;5022043;28;21143;-76
2022/01/15 11:11:06;;;;;;;16.92;8.30;;;;;11.20;102660.00;;;;5028568;28;20192;-76
2022/01/15 11:13:34;;;;;;;18.30;8.27;;;;;11.20;102657.00;;;;5011694;28;20216;-76
2022/01/15 11:16:04;;;;;;;17.42;7.00;;;;;11.20;102651.00;;;;5020599;28;20220;-76
2022/01/15 11:18:33;;;;;;;16.85;7.85;;;;;11.20;102656.00;;;;5015347;28;20242;-76
2022/01/15 11:21:02;;;;;;;15.18;7.40;;;;;11.30;102647.00;;;;5011533;28;20228;-76
2022/01/15 11:23:31;;;;;;;16.08;8.00;;;;;11.30;102656.00;;;;5021242;28;20254;-76
2022/01/15 11:26:02;;;;;;;15.63;7.78;;;;;11.30;102645.00;;;;5015940;28;20196;-75
2022/01/15 11:28:33;;;;;;;16.05;8.13;;;;;11.30;102647.00;;;;5013737;28;20207;-76
2022/01/15 11:31:03;;;;;;;13.80;6.93;;;;;11.30;102635.00;;;;5031140;28;20238;-75
2022/01/15 11:33:33;;;;;;;16.92;6.43;;;;;11.30;102638.00;;;;5027753;28;20196;-75
2022/01/15 11:36:01;;;;;;;11.68;6.50;;;;;11.30;102631.00;;;;5013706;28;20188;-76
2022/01/15 11:38:44;;;;;;;12.02;6.47;;;;;11.10;102625.00;;;;5028032;28;20974;-75
2022/01/15 11:41:40;;;;;;;11.35;5.95;;;;;11.10;102626.00;;;;5017845;28;20211;-76
2022/01/15 11:44:10;;;;;;;12.38;6.40;;;;;11.20;102623.00;;;;5008156;28;20299;-76
2022/01/15 11:46:44;;;;;;;14.10;7.22;;;;;11.20;102621.00;;;;5026594;28;20188;-76
2022/01/15 11:49:36;;;;;;;13.80;7.28;;;;;11.10;102626.00;;;;5010983;28;20229;-76
2022/01/15 11:52:43;;;;;;;14.00;6.88;;;;;11.10;102624.00;;;;5015805;28;20228;-76
2022/01/15 11:55:14;;;;;;;12.05;6.95;;;;;11.20;102621.00;;;;5014291;28;20283;-75
2022/01/15 11:57:49;;;;;;;13.05;6.50;;;;;11.10;102622.00;;;;5019301;28;20696;-74
2022/01/15 12:00:23;;;;;;;16.20;8.00;;;;;11.10;102615.00;;;;5021418;28;20230;-77
2022/01/15 12:03:12;;;;;;;15.55;7.13;;;;;11.10;102616.00;;;;5019477;28;20208;-76
2022/01/15 12:05:41;;;;;;;14.13;6.60;;;;;11.20;102616.00;;;;5016807;28;20211;-76
2022/01/15 12:08:33;;;;;;;11.65;6.70;;;;;11.10;102612.00;;;;5012488;28;20200;-76
2022/01/15 12:11:03;;;;;;;14.32;6.95;;;;;11.20;102609.00;;;;5025400;28;20211;-76
2022/01/15 12:13:47;;;;;;;15.18;7.47;;;;;11.10;102605.00;;;;5033557;28;20223;-76
2022/01/15 12:16:21;;;;;;;13.10;7.18;;;;;11.10;102601.00;;;;5024961;28;20197;-76
2022/01/15 12:18:50;;;;;;;14.50;7.60;;;;;11.10;102606.00;;;;5024436;28;20219;-77
2022/01/15 12:21:46;;;;;;;13.95;6.97;;;;;11.00;102600.00;;;;5025603;28;20228;-76
2022/01/15 12:24:44;;;;;;;10.32;5.65;;;;;11.00;102602.00;;;;5026355;28;20200;-77
2022/01/15 12:27:15;;;;;;;12.23;6.80;;;;;11.00;102603.00;;;;5022016;28;20205;-76